sensor_id;sensor_type;location;lat;lon;timestamp;pressure;altitude;pressure_sealevel;temperature
20848;BMP180;10584;50.854;12.902;2023-05-31T00:02:56;98882.00;;;8.20
20848;BMP180;10584;50.854;12.902;2023-05-31T00:08:23;98889.00;;;8.10
20848;BMP180;10584;50.854;12.902;2023-05-31T00:13:54;98890.00;;;8.00
20848;BMP180;10584;50.854;12.902;2023-05-31T00:19:23;98894.00;;;7.90
20848;BMP180;10584;50.854;12.902;2023-05-31T00:24:45;98884.00;;;7.90
20848;BMP180;10584;50.854;12.902;2023-05-31T00:30:07;98892.00;;;7.80
20848;BMP180;10584;50.854;12.902;2023-05-31T00:35:29;98897.00;;;7.70
20848;BMP180;10584;50.854;12.902;2023-05-31T00:40:57;98893.00;;;7.60
20848;BMP180;10584;50.854;12.902;2023-05-31T00:46:35;98892.00;;;7.50
20848;BMP180;10584;50.854;12.902;2023-05-31T00:52:13;98883.00;;;7.50
20848;BMP180;10584;50.854;12.902;2023-05-31T00:57:53;98883.00;;;7.40
20848;BMP180;10584;50.854;12.902;2023-05-31T01:03:32;98885.00;;;7.30
20848;BMP180;10584;50.854;12.902;2023-05-31T01:09:18;98882.00;;;7.20
20848;BMP180;10584;50.854;12.902;2023-05-31T01:20:34;98878.00;;;7.10
20848;BMP180;10584;50.854;12.902;2023-05-31T01:31:53;98889.00;;;6.90
20848;BMP180;10584;50.854;12.902;2023-05-31T01:37:42;98884.00;;;6.80
20848;BMP180;10584;50.854;12.902;2023-05-31T01:43:15;98874.00;;;6.70
20848;BMP180;10584;50.854;12.902;2023-05-31T01:48:58;98879.00;;;6.70
20848;BMP180;10584;50.854;12.902;2023-05-31T01:54:27;98874.00;;;6.60
20848;BMP180;10584;50.854;12.902;2023-05-31T01:59:50;98877.00;;;6.60
20848;BMP180;10584;50.854;12.902;2023-05-31T02:05:16;98870.00;;;6.60
20848;BMP180;10584;50.854;12.902;2023-05-31T02:11:02;98880.00;;;6.60
20848;BMP180;10584;50.854;12.902;2023-05-31T02:16:50;98889.00;;;6.50
20848;BMP180;10584;50.854;12.902;2023-05-31T02:22:16;98883.00;;;6.50
20848;BMP180;10584;50.854;12.902;2023-05-31T02:27:45;98879.00;;;6.40
20848;BMP180;10584;50.854;12.902;2023-05-31T02:33:37;98891.00;;;6.30
20848;BMP180;10584;50.854;12.902;2023-05-31T02:39:10;98883.00;;;6.30
20848;BMP180;10584;50.854;12.902;2023-05-31T02:44:37;98887.00;;;6.20
20848;BMP180;10584;50.854;12.902;2023-05-31T02:49:59;98886.00;;;6.20
20848;BMP180;10584;50.854;12.902;2023-05-31T02:55:22;98878.00;;;6.10
20848;BMP180;10584;50.854;12.902;2023-05-31T03:01:22;98879.00;;;6.10
20848;BMP180;10584;50.854;12.902;2023-05-31T03:07:11;98890.00;;;6.10
20848;BMP180;10584;50.854;12.902;2023-05-31T03:12:46;98886.00;;;6.00
20848;BMP180;10584;50.854;12.902;2023-05-31T03:18:32;98891.00;;;6.00
20848;BMP180;10584;50.854;12.902;2023-05-31T03:24:01;98883.00;;;5.90
20848;BMP180;10584;50.854;12.902;2023-05-31T03:29:26;98896.00;;;5.90
20848;BMP180;10584;50.854;12.902;2023-05-31T03:34:47;98895.00;;;5.90
20848;BMP180;10584;50.854;12.902;2023-05-31T03:40:09;98886.00;;;5.90
20848;BMP180;10584;50.854;12.902;2023-05-31T03:45:31;98892.00;;;5.80
20848;BMP180;10584;50.854;12.902;2023-05-31T03:51:01;98886.00;;;5.80
20848;BMP180;10584;50.854;12.902;2023-05-31T03:56:55;98894.00;;;5.90
20848;BMP180;10584;50.854;12.902;2023-05-31T04:02:37;98891.00;;;5.90
20848;BMP180;10584;50.854;12.902;2023-05-31T04:08:36;98897.00;;;6.00
20848;BMP180;10584;50.854;12.902;2023-05-31T04:14:15;98894.00;;;6.10
20848;BMP180;10584;50.854;12.902;2023-05-31T04:19:37;98887.00;;;6.20
20848;BMP180;10584;50.854;12.902;2023-05-31T04:24:59;98891.00;;;6.50
20848;BMP180;10584;50.854;12.902;2023-05-31T04:30:26;98902.00;;;6.90
20848;BMP180;10584;50.854;12.902;2023-05-31T04:35:56;98904.00;;;7.20
20848;BMP180;10584;50.854;12.902;2023-05-31T04:41:47;98897.00;;;7.50
20848;BMP180;10584;50.854;12.902;2023-05-31T04:47:43;98898.00;;;8.00
20848;BMP180;10584;50.854;12.902;2023-05-31T04:53:33;98898.00;;;8.40
20848;BMP180;10584;50.854;12.902;2023-05-31T04:59:12;98902.00;;;9.00
20848;BMP180;10584;50.854;12.902;2023-05-31T05:04:50;98903.00;;;9.50
20848;BMP180;10584;50.854;12.902;2023-05-31T05:10:25;98902.00;;;10.00
20848;BMP180;10584;50.854;12.902;2023-05-31T05:15:48;98900.00;;;10.40
20848;BMP180;10584;50.854;12.902;2023-05-31T05:21:30;98905.00;;;11.00
20848;BMP180;10584;50.854;12.902;2023-05-31T05:27:08;98905.00;;;11.50
20848;BMP180;10584;50.854;12.902;2023-05-31T05:32:48;98904.00;;;12.00
20848;BMP180;10584;50.854;12.902;2023-05-31T05:38:37;98904.00;;;12.40
20848;BMP180;10584;50.854;12.902;2023-05-31T05:44:09;98907.00;;;12.90
20848;BMP180;10584;50.854;12.902;2023-05-31T05:49:35;98905.00;;;13.40
20848;BMP180;10584;50.854;12.902;2023-05-31T05:54:56;98912.00;;;13.80
20848;BMP180;10584;50.854;12.902;2023-05-31T06:00:18;98914.00;;;14.20
20848;BMP180;10584;50.854;12.902;2023-05-31T06:05:50;98918.00;;;14.80
20848;BMP180;10584;50.854;12.902;2023-05-31T06:11:28;98918.00;;;15.20
20848;BMP180;10584;50.854;12.902;2023-05-31T06:17:13;98924.00;;;15.50
20848;BMP180;10584;50.854;12.902;2023-05-31T06:22:55;98925.00;;;15.90
20848;BMP180;10584;50.854;12.902;2023-05-31T06:28:32;98918.00;;;16.30
20848;BMP180;10584;50.854;12.902;2023-05-31T06:34:33;98925.00;;;16.70
20848;BMP180;10584;50.854;12.902;2023-05-31T06:39:55;98915.00;;;17.10
20848;BMP180;10584;50.854;12.902;2023-05-31T06:45:16;98928.00;;;17.40
20848;BMP180;10584;50.854;12.902;2023-05-31T06:50:53;98926.00;;;17.70
20848;BMP180;10584;50.854;12.902;2023-05-31T06:56:54;98927.00;;;18.10
20848;BMP180;10584;50.854;12.902;2023-05-31T07:02:34;98931.00;;;18.40
20848;BMP180;10584;50.854;12.902;2023-05-31T07:08:26;98921.00;;;18.80
20848;BMP180;10584;50.854;12.902;2023-05-31T07:14:28;98922.00;;;19.20
20848;BMP180;10584;50.854;12.902;2023-05-31T07:19:50;98925.00;;;19.40
20848;BMP180;10584;50.854;12.902;2023-05-31T07:25:12;98913.00;;;19.50
20848;BMP180;10584;50.854;12.902;2023-05-31T07:30:33;98913.00;;;19.80
20848;BMP180;10584;50.854;12.902;2023-05-31T07:36:03;98916.00;;;20.10
20848;BMP180;10584;50.854;12.902;2023-05-31T07:41:38;98911.00;;;20.40
20848;BMP180;10584;50.854;12.902;2023-05-31T07:47:25;98910.00;;;20.60
20848;BMP180;10584;50.854;12.902;2023-05-31T07:53:01;98907.00;;;20.80
20848;BMP180;10584;50.854;12.902;2023-05-31T07:58:32;98904.00;;;20.90
20848;BMP180;10584;50.854;12.902;2023-05-31T08:04:20;98897.00;;;21.00
20848;BMP180;10584;50.854;12.902;2023-05-31T08:09:50;98896.00;;;21.30
20848;BMP180;10584;50.854;12.902;2023-05-31T08:15:11;98896.00;;;21.40
20848;BMP180;10584;50.854;12.902;2023-05-31T08:20:34;98893.00;;;21.60
20848;BMP180;10584;50.854;12.902;2023-05-31T08:25:59;98888.00;;;21.70
20848;BMP180;10584;50.854;12.902;2023-05-31T08:31:45;98890.00;;;21.70
20848;BMP180;10584;50.854;12.902;2023-05-31T08:37:35;98892.00;;;21.70
20848;BMP180;10584;50.854;12.902;2023-05-31T08:43:22;98882.00;;;21.70
20848;BMP180;10584;50.854;12.902;2023-05-31T08:49:10;98880.00;;;21.60
20848;BMP180;10584;50.854;12.902;2023-05-31T08:54:38;98883.00;;;21.70
20848;BMP180;10584;50.854;12.902;2023-05-31T09:00:01;98871.00;;;22.00
20848;BMP180;10584;50.854;12.902;2023-05-31T09:05:36;98867.00;;;22.20
20848;BMP180;10584;50.854;12.902;2023-05-31T09:11:13;98884.00;;;22.10
20848;BMP180;10584;50.854;12.902;2023-05-31T09:17:10;98868.00;;;22.40
20848;BMP180;10584;50.854;12.902;2023-05-31T09:23:00;98861.00;;;22.60
20848;BMP180;10584;50.854;12.902;2023-05-31T09:28:38;98862.00;;;22.70
20848;BMP180;10584;50.854;12.902;2023-05-31T09:34:27;98866.00;;;22.40
20848;BMP180;10584;50.854;12.902;2023-05-31T09:39:57;98854.00;;;22.60
20848;BMP180;10584;50.854;12.902;2023-05-31T09:45:20;98854.00;;;23.00
20848;BMP180;10584;50.854;12.902;2023-05-31T09:50:41;98856.00;;;22.90
20848;BMP180;10584;50.854;12.902;2023-05-31T09:56:19;98848.00;;;23.00
20848;BMP180;10584;50.854;12.902;2023-05-31T10:01:59;98854.00;;;23.30
20848;BMP180;10584;50.854;12.902;2023-05-31T10:07:45;98847.00;;;23.50
20848;BMP180;10584;50.854;12.902;2023-05-31T10:13:41;98839.00;;;23.40
20848;BMP180;10584;50.854;12.902;2023-05-31T10:19:37;98841.00;;;23.50
20848;BMP180;10584;50.854;12.902;2023-05-31T10:25:41;98841.00;;;23.50
20848;BMP180;10584;50.854;12.902;2023-05-31T10:31:11;98835.00;;;23.60
20848;BMP180;10584;50.854;12.902;2023-05-31T10:37:04;98825.00;;;23.70
20848;BMP180;10584;50.854;12.902;2023-05-31T10:48:44;98807.00;;;24.00
20848;BMP180;10584;50.854;12.902;2023-05-31T10:54:27;98808.00;;;23.80
20848;BMP180;10584;50.854;12.902;2023-05-31T10:59:52;98804.00;;;24.00
20848;BMP180;10584;50.854;12.902;2023-05-31T11:05:26;98802.00;;;24.10
20848;BMP180;10584;50.854;12.902;2023-05-31T11:11:47;98803.00;;;24.20
20848;BMP180;10584;50.854;12.902;2023-05-31T11:17:28;98808.00;;;24.10
20848;BMP180;10584;50.854;12.902;2023-05-31T11:23:30;98804.00;;;24.20
20848;BMP180;10584;50.854;12.902;2023-05-31T11:29:14;98795.00;;;24.30
20848;BMP180;10584;50.854;12.902;2023-05-31T11:34:58;98784.00;;;24.40
20848;BMP180;10584;50.854;12.902;2023-05-31T11:40:21;98783.00;;;24.50
20848;BMP180;10584;50.854;12.902;2023-05-31T11:45:46;98783.00;;;24.60
20848;BMP180;10584;50.854;12.902;2023-05-31T11:51:25;98783.00;;;24.80
20848;BMP180;10584;50.854;12.902;2023-05-31T11:57:07;98777.00;;;24.80
20848;BMP180;10584;50.854;12.902;2023-05-31T12:03:05;98783.00;;;24.80
20848;BMP180;10584;50.854;12.902;2023-05-31T12:08:52;98768.00;;;25.10
20848;BMP180;10584;50.854;12.902;2023-05-31T12:14:17;98771.00;;;25.10
20848;BMP180;10584;50.854;12.902;2023-05-31T12:19:46;98771.00;;;25.20
20848;BMP180;10584;50.854;12.902;2023-05-31T12:25:08;98757.00;;;25.10
20848;BMP180;10584;50.854;12.902;2023-05-31T12:30:29;98760.00;;;25.20
20848;BMP180;10584;50.854;12.902;2023-05-31T12:36:19;98744.00;;;25.20
20848;BMP180;10584;50.854;12.902;2023-05-31T12:42:02;98743.00;;;25.50
20848;BMP180;10584;50.854;12.902;2023-05-31T12:47:45;98751.00;;;25.20
20848;BMP180;10584;50.854;12.902;2023-05-31T12:53:42;98739.00;;;25.40
20848;BMP180;10584;50.854;12.902;2023-05-31T12:59:05;98731.00;;;25.30
20848;BMP180;10584;50.854;12.902;2023-05-31T13:04:47;98740.00;;;25.50
20848;BMP180;10584;50.854;12.902;2023-05-31T13:10:27;98750.00;;;25.50
20848;BMP180;10584;50.854;12.902;2023-05-31T13:22:09;98727.00;;;25.50
20848;BMP180;10584;50.854;12.902;2023-05-31T13:27:49;98719.00;;;25.60
20848;BMP180;10584;50.854;12.902;2023-05-31T13:33:37;98712.00;;;25.70
20848;BMP180;10584;50.854;12.902;2023-05-31T13:39:01;98694.00;;;25.60
20848;BMP180;10584;50.854;12.902;2023-05-31T13:44:27;98705.00;;;25.30
20848;BMP180;10584;50.854;12.902;2023-05-31T13:49:48;98694.00;;;25.20
20848;BMP180;10584;50.854;12.902;2023-05-31T13:55:10;98688.00;;;25.50
20848;BMP180;10584;50.854;12.902;2023-05-31T14:00:32;98695.00;;;25.30
20848;BMP180;10584;50.854;12.902;2023-05-31T14:06:02;98694.00;;;25.60
20848;BMP180;10584;50.854;12.902;2023-05-31T14:11:41;98681.00;;;25.50
20848;BMP180;10584;50.854;12.902;2023-05-31T14:17:36;98680.00;;;25.70
20848;BMP180;10584;50.854;12.902;2023-05-31T14:23:18;98676.00;;;25.80
20848;BMP180;10584;50.854;12.902;2023-05-31T14:28:55;98673.00;;;25.90
20848;BMP180;10584;50.854;12.902;2023-05-31T14:34:28;98670.00;;;25.70
20848;BMP180;10584;50.854;12.902;2023-05-31T14:39:54;98664.00;;;25.70
20848;BMP180;10584;50.854;12.902;2023-05-31T14:45:16;98667.00;;;25.80
20848;BMP180;10584;50.854;12.902;2023-05-31T14:50:38;98651.00;;;25.70
20848;BMP180;10584;50.854;12.902;2023-05-31T14:56:02;98655.00;;;25.80
20848;BMP180;10584;50.854;12.902;2023-05-31T15:01:55;98652.00;;;25.80
20848;BMP180;10584;50.854;12.902;2023-05-31T15:07:42;98656.00;;;25.50
20848;BMP180;10584;50.854;12.902;2023-05-31T15:13:14;98648.00;;;25.70
20848;BMP180;10584;50.854;12.902;2023-05-31T15:18:46;98649.00;;;25.80
20848;BMP180;10584;50.854;12.902;2023-05-31T15:24:11;98639.00;;;25.60
20848;BMP180;10584;50.854;12.902;2023-05-31T15:29:37;98639.00;;;25.50
20848;BMP180;10584;50.854;12.902;2023-05-31T15:34:58;98640.00;;;25.60
20848;BMP180;10584;50.854;12.902;2023-05-31T15:40:24;98641.00;;;25.60
20848;BMP180;10584;50.854;12.902;2023-05-31T15:45:49;98627.00;;;25.60
20848;BMP180;10584;50.854;12.902;2023-05-31T15:51:23;98622.00;;;25.70
20848;BMP180;10584;50.854;12.902;2023-05-31T15:56:56;98633.00;;;25.50
20848;BMP180;10584;50.854;12.902;2023-05-31T16:02:40;98614.00;;;25.40
20848;BMP180;10584;50.854;12.902;2023-05-31T16:08:33;98610.00;;;25.40
20848;BMP180;10584;50.854;12.902;2023-05-31T16:14:05;98606.00;;;25.10
20848;BMP180;10584;50.854;12.902;2023-05-31T16:19:26;98607.00;;;25.20
20848;BMP180;10584;50.854;12.902;2023-05-31T16:24:49;98606.00;;;25.30
20848;BMP180;10584;50.854;12.902;2023-05-31T16:30:11;98599.00;;;25.30
20848;BMP180;10584;50.854;12.902;2023-05-31T16:35:32;98592.00;;;25.00
20848;BMP180;10584;50.854;12.902;2023-05-31T16:40:59;98584.00;;;25.00
20848;BMP180;10584;50.854;12.902;2023-05-31T16:46:40;98586.00;;;25.20
20848;BMP180;10584;50.854;12.902;2023-05-31T16:52:19;98574.00;;;25.40
20848;BMP180;10584;50.854;12.902;2023-05-31T16:57:59;98571.00;;;25.40
20848;BMP180;10584;50.854;12.902;2023-05-31T17:03:27;98573.00;;;25.40
20848;BMP180;10584;50.854;12.902;2023-05-31T17:08:48;98569.00;;;25.30
20848;BMP180;10584;50.854;12.902;2023-05-31T17:14:11;98564.00;;;25.30
20848;BMP180;10584;50.854;12.902;2023-05-31T17:19:38;98560.00;;;25.30
20848;BMP180;10584;50.854;12.902;2023-05-31T17:25:00;98562.00;;;25.30
20848;BMP180;10584;50.854;12.902;2023-05-31T17:30:21;98559.00;;;25.20
20848;BMP180;10584;50.854;12.902;2023-05-31T17:35:48;98566.00;;;25.10
20848;BMP180;10584;50.854;12.902;2023-05-31T17:41:28;98552.00;;;24.90
20848;BMP180;10584;50.854;12.902;2023-05-31T17:47:11;98547.00;;;24.90
20848;BMP180;10584;50.854;12.902;2023-05-31T17:52:53;98549.00;;;24.80
20848;BMP180;10584;50.854;12.902;2023-05-31T17:58:32;98548.00;;;24.80
20848;BMP180;10584;50.854;12.902;2023-05-31T18:04:11;98545.00;;;24.60
20848;BMP180;10584;50.854;12.902;2023-05-31T18:09:50;98538.00;;;24.60
20848;BMP180;10584;50.854;12.902;2023-05-31T18:15:12;98535.00;;;24.40
20848;BMP180;10584;50.854;12.902;2023-05-31T18:20:34;98537.00;;;24.30
20848;BMP180;10584;50.854;12.902;2023-05-31T18:26:02;98540.00;;;24.20
20848;BMP180;10584;50.854;12.902;2023-05-31T18:31:48;98541.00;;;23.90
20848;BMP180;10584;50.854;12.902;2023-05-31T18:37:49;98530.00;;;23.60
20848;BMP180;10584;50.854;12.902;2023-05-31T18:43:36;98543.00;;;23.20
20848;BMP180;10584;50.854;12.902;2023-05-31T18:49:05;98527.00;;;22.70
20848;BMP180;10584;50.854;12.902;2023-05-31T18:54:32;98531.00;;;22.40
20848;BMP180;10584;50.854;12.902;2023-05-31T18:59:54;98528.00;;;21.90
20848;BMP180;10584;50.854;12.902;2023-05-31T19:05:20;98529.00;;;21.60
20848;BMP180;10584;50.854;12.902;2023-05-31T19:11:02;98538.00;;;21.10
20848;BMP180;10584;50.854;12.902;2023-05-31T19:16:34;98521.00;;;20.70
20848;BMP180;10584;50.854;12.902;2023-05-31T19:22:14;98525.00;;;20.30
20848;BMP180;10584;50.854;12.902;2023-05-31T19:27:52;98523.00;;;19.90
20848;BMP180;10584;50.854;12.902;2023-05-31T19:33:28;98529.00;;;19.50
20848;BMP180;10584;50.854;12.902;2023-05-31T19:38:56;98537.00;;;19.20
20848;BMP180;10584;50.854;12.902;2023-05-31T19:44:24;98544.00;;;18.90
20848;BMP180;10584;50.854;12.902;2023-05-31T19:49:47;98539.00;;;18.50
20848;BMP180;10584;50.854;12.902;2023-05-31T19:55:09;98526.00;;;18.20
20848;BMP180;10584;50.854;12.902;2023-05-31T20:00:30;98531.00;;;17.90
20848;BMP180;10584;50.854;12.902;2023-05-31T20:05:55;98531.00;;;17.60
20848;BMP180;10584;50.854;12.902;2023-05-31T20:11:29;98526.00;;;17.30
20848;BMP180;10584;50.854;12.902;2023-05-31T20:17:15;98523.00;;;17.10
20848;BMP180;10584;50.854;12.902;2023-05-31T20:22:54;98518.00;;;16.80
20848;BMP180;10584;50.854;12.902;2023-05-31T20:28:22;98510.00;;;16.60
20848;BMP180;10584;50.854;12.902;2023-05-31T20:34:17;98508.00;;;16.30
20848;BMP180;10584;50.854;12.902;2023-05-31T20:39:43;98503.00;;;16.10
20848;BMP180;10584;50.854;12.902;2023-05-31T20:45:05;98507.00;;;15.90
20848;BMP180;10584;50.854;12.902;2023-05-31T20:50:28;98496.00;;;15.70
20848;BMP180;10584;50.854;12.902;2023-05-31T20:55:57;98514.00;;;15.60
20848;BMP180;10584;50.854;12.902;2023-05-31T21:01:53;98512.00;;;15.30
20848;BMP180;10584;50.854;12.902;2023-05-31T21:07:40;98507.00;;;15.20
20848;BMP180;10584;50.854;12.902;2023-05-31T21:13:11;98503.00;;;15.00
20848;BMP180;10584;50.854;12.902;2023-05-31T21:18:47;98508.00;;;14.80
20848;BMP180;10584;50.854;12.902;2023-05-31T21:24:24;98500.00;;;14.60
20848;BMP180;10584;50.854;12.902;2023-05-31T21:29:46;98510.00;;;14.50
20848;BMP180;10584;50.854;12.902;2023-05-31T21:35:07;98495.00;;;14.40
20848;BMP180;10584;50.854;12.902;2023-05-31T21:40:30;98499.00;;;14.20
20848;BMP180;10584;50.854;12.902;2023-05-31T21:45:52;98497.00;;;14.10
20848;BMP180;10584;50.854;12.902;2023-05-31T21:51:13;98496.00;;;13.90
20848;BMP180;10584;50.854;12.902;2023-05-31T21:56:35;98505.00;;;13.70
20848;BMP180;10584;50.854;12.902;2023-05-31T22:01:57;98499.00;;;13.60
20848;BMP180;10584;50.854;12.902;2023-05-31T22:07:19;98497.00;;;13.40
20848;BMP180;10584;50.854;12.902;2023-05-31T22:12:40;98507.00;;;13.30
20848;BMP180;10584;50.854;12.902;2023-05-31T22:18:02;98513.00;;;13.10
20848;BMP180;10584;50.854;12.902;2023-05-31T22:23:24;98509.00;;;13.00
20848;BMP180;10584;50.854;12.902;2023-05-31T22:28:47;98519.00;;;12.90
20848;BMP180;10584;50.854;12.902;2023-05-31T22:34:08;98511.00;;;12.70
20848;BMP180;10584;50.854;12.902;2023-05-31T22:39:30;98506.00;;;12.60
20848;BMP180;10584;50.854;12.902;2023-05-31T22:44:52;98512.00;;;12.50
20848;BMP180;10584;50.854;12.902;2023-05-31T22:50:13;98520.00;;;12.30
20848;BMP180;10584;50.854;12.902;2023-05-31T22:55:38;98521.00;;;12.20
20848;BMP180;10584;50.854;12.902;2023-05-31T23:01:00;98520.00;;;12.10
20848;BMP180;10584;50.854;12.902;2023-05-31T23:06:22;98510.00;;;12.10
20848;BMP180;10584;50.854;12.902;2023-05-31T23:11:46;98508.00;;;12.00
20848;BMP180;10584;50.854;12.902;2023-05-31T23:17:10;98509.00;;;11.90
20848;BMP180;10584;50.854;12.902;2023-05-31T23:22:31;98515.00;;;11.80
20848;BMP180;10584;50.854;12.902;2023-05-31T23:27:53;98510.00;;;11.70
20848;BMP180;10584;50.854;12.902;2023-05-31T23:33:16;98500.00;;;11.60
20848;BMP180;10584;50.854;12.902;2023-05-31T23:38:38;98497.00;;;11.50
20848;BMP180;10584;50.854;12.902;2023-05-31T23:44:01;98498.00;;;11.40
20848;BMP180;10584;50.854;12.902;2023-05-31T23:49:22;98493.00;;;11.40
20848;BMP180;10584;50.854;12.902;2023-05-31T23:54:44;98499.00;;;11.30
